Brunswick Golden Isles Airport
KBQK : now visible

Airfield :











YOU CAN JOIN US ON...

 
LOGIN :

Register | Disclaimer

   EN    FR    IT 

 









Legend :    VFR   Marginal VFR   IFR   Intensive IFR   Very Intensive IFR
Visi :
Ceiling :
>= 8 km
>= 3000ft
5 to 8 km
1000 to 3000 ft
1500m to 5 km
500 to 1000 ft
800 to 1500m
200 to 500 ft
< 800m
< 200 ft
Symbols :   Thunderstorms  Fog  Heavy snow  Heavy precipitations  Wind > 20 kt






- Airport Elevation : 26 ft
- IATA code : BQK


KBQK - Brunswick Golden Isles

CURRENT METAR :
  • 180115Z AUTO 06017G23KT 10SM CLR 11/07 A3054 RMK AO2 T01150071

EXPIRED METARs :
  • 180055Z AUTO 05018G22KT 10SM CLR 12/07 A3054 RMK AO2 T01160070
  • 180035Z AUTO 06014G24KT 10SM CLR 12/07 A3054 RMK AO2 T01160068
  • 180015Z AUTO 05016G23KT 10SM CLR 11/07 A3054 RMK AO2 T01150068
  • 172355Z AUTO 06017G22KT 10SM SCT039 11/07 A3054 RMK AO2 T01140067 10148 20112 402030108
  • 172335Z AUTO 05016G23KT 10SM SCT041 11/07 A3054 RMK AO2 T01150068
  • 172315Z AUTO 05012KT 10SM BKN041 11/07 A3054 RMK AO2 T01140067
  • 172255Z AUTO 05014G23KT 10SM OVC041 12/06 A3054 RMK AO2 T01150064
  • 172235Z AUTO 04016G21KT 10SM OVC041 12/06 A3053 RMK AO2 T01180062

TAF N/A



MET'MAP, your aeronautical weather chart ! - Copyright ORBIFLY December 2007 - Disclaimer

ORBIFLY MET'MAP TEAM :

Programming & Development : Alexandra Zaïnal
Concept & original design : Baudouin d'Aumeries
Assistance for programming : Marc-Olivier Méhu
Technical & hardware support : Manuel Goepfert

Contact : metmap@orbifly.com




SOURCES & CREDITS :

   NOAA       Earth
Advisory